createdAt,value
2022-11-05T00:01:14.864Z,28.17
2022-11-05T00:06:35.048Z,24.23
2022-11-05T00:11:55.400Z,23.23
2022-11-05T00:16:57.814Z,23.38
2022-11-05T00:22:18.067Z,22.05
2022-11-05T00:27:21.909Z,20.65
2022-11-05T00:32:24.374Z,20.15
2022-11-05T00:37:28.212Z,18.95
2022-11-05T00:43:00.863Z,17.60
2022-11-05T00:48:20.909Z,16.23
2022-11-05T00:53:23.548Z,17.13
2022-11-05T00:58:29.231Z,15.23
2022-11-05T01:03:32.701Z,17.67
2022-11-05T01:08:35.162Z,14.10
2022-11-05T01:13:39.521Z,14.52
2022-11-05T01:18:42.142Z,17.38
2022-11-05T01:23:44.933Z,15.45
2022-11-05T01:28:53.665Z,14.20
2022-11-05T01:33:56.310Z,17.52
2022-11-05T01:38:58.992Z,17.10
2022-11-05T01:44:03.305Z,16.30
2022-11-05T01:49:09.709Z,13.85
2022-11-05T01:54:14.428Z,15.23
2022-11-05T01:59:22.408Z,15.13
2022-11-05T02:04:28.104Z,14.43
2022-11-05T02:09:32.009Z,16.35
2022-11-05T02:14:35.800Z,15.75
2022-11-05T02:20:02.335Z,15.77
2022-11-05T02:25:18.832Z,15.43
2022-11-05T02:30:34.012Z,19.20
2022-11-05T02:35:44.041Z,17.77
2022-11-05T02:40:49.897Z,17.15
2022-11-05T02:45:59.716Z,16.75
2022-11-05T02:51:06.613Z,18.60
2022-11-05T02:56:10.999Z,18.00
2022-11-05T03:01:14.845Z,16.40
2022-11-05T03:06:36.674Z,14.68
2022-11-05T03:11:44.444Z,16.33
2022-11-05T03:16:49.157Z,13.55
2022-11-05T03:21:53.650Z,14.20
2022-11-05T03:26:58.025Z,13.88
2022-11-05T03:32:04.281Z,14.65
2022-11-05T03:37:07.422Z,12.70
2022-11-05T03:42:12.010Z,13.95
2022-11-05T03:47:18.202Z,13.70
2022-11-05T03:52:22.744Z,15.63
2022-11-05T03:57:27.634Z,18.23
2022-11-05T04:02:32.135Z,15.15
2022-11-05T04:07:52.437Z,13.40
2022-11-05T04:13:27.043Z,13.73
2022-11-05T04:18:30.763Z,11.55
2022-11-05T04:29:11.314Z,10.38
2022-11-05T04:34:16.170Z,10.98
2022-11-05T04:39:19.041Z,12.90
2022-11-05T04:44:21.668Z,10.77
2022-11-05T04:49:25.514Z,11.38
2022-11-05T04:54:27.957Z,11.30
2022-11-05T04:59:30.567Z,10.90
2022-11-05T05:04:34.508Z,11.40
2022-11-05T05:09:37.034Z,12.23
2022-11-05T05:14:39.715Z,15.32
2022-11-05T05:20:00.981Z,15.52
2022-11-05T05:25:03.685Z,16.55
2022-11-05T05:30:06.613Z,19.50
2022-11-05T05:35:10.922Z,18.47
2022-11-05T05:40:13.345Z,20.00
2022-11-05T05:45:15.796Z,19.08
2022-11-05T05:50:19.563Z,21.08
2022-11-05T05:55:22.118Z,22.55
2022-11-05T06:05:29.291Z,23.35
2022-11-05T06:10:31.819Z,27.50
2022-11-05T06:15:36.091Z,27.02
2022-11-05T06:20:40.002Z,29.05
2022-11-05T06:25:42.392Z,28.77
2022-11-05T06:30:50.832Z,28.17
2022-11-05T06:35:54.684Z,29.63
2022-11-05T06:40:59.238Z,30.90
2022-11-05T06:46:02.154Z,30.73
2022-11-05T06:51:06.957Z,29.23
2022-11-05T06:56:09.762Z,30.77
2022-11-05T07:01:12.956Z,29.00
2022-11-05T07:06:17.158Z,29.90
2022-11-05T07:11:21.300Z,30.63
2022-11-05T07:16:24.198Z,31.67
2022-11-05T07:21:29.140Z,32.77
2022-11-05T07:26:34.557Z,40.13
2022-11-05T07:31:37.387Z,23.13
2022-11-05T07:36:41.219Z,21.50
2022-11-05T07:41:43.690Z,14.90
2022-11-05T07:46:46.130Z,9.18
2022-11-05T07:51:49.861Z,8.40
2022-11-05T07:56:52.267Z,8.02
2022-11-05T08:01:55.045Z,6.00
2022-11-05T08:06:59.114Z,5.90
2022-11-05T08:12:03.012Z,5.72
2022-11-05T08:17:05.966Z,5.05
2022-11-05T08:22:09.761Z,5.40
2022-11-05T08:27:12.217Z,4.80
2022-11-05T08:32:14.933Z,4.90
2022-11-05T08:37:18.871Z,5.68
2022-11-05T08:42:21.344Z,5.03
2022-11-05T08:47:23.808Z,4.70
2022-11-05T08:52:27.588Z,4.60
2022-11-05T08:57:30.315Z,4.13
2022-11-05T09:02:32.909Z,4.55
2022-11-05T09:07:36.900Z,4.25
2022-11-05T09:12:39.406Z,4.13
2022-11-05T09:17:42.256Z,4.55
2022-11-05T09:22:46.325Z,3.90
2022-11-05T09:27:49.190Z,5.00
2022-11-05T09:32:52.466Z,4.68
2022-11-05T09:38:00.766Z,4.53
2022-11-05T09:43:04.108Z,4.60
2022-11-05T09:48:11.302Z,4.63
2022-11-05T09:53:18.703Z,5.88
2022-11-05T09:58:28.477Z,4.68
2022-11-05T10:03:31.901Z,5.57
2022-11-05T10:08:39.353Z,5.00
2022-11-05T10:13:43.298Z,5.97
2022-11-05T10:18:48.430Z,5.00
2022-11-05T10:23:53.020Z,5.35
2022-11-05T10:28:55.999Z,4.97
2022-11-05T10:39:07.463Z,5.30
2022-11-05T10:44:19.043Z,5.00
2022-11-05T10:49:28.995Z,4.45
2022-11-05T10:54:34.571Z,4.78
2022-11-05T10:59:37.302Z,5.13
2022-11-05T11:04:40.388Z,4.50
2022-11-05T11:15:00.655Z,4.40
2022-11-05T11:20:15.331Z,4.53
2022-11-05T11:25:20.289Z,4.15
2022-11-05T11:30:27.428Z,4.43
2022-11-05T11:35:29.915Z,3.97
2022-11-05T11:40:33.792Z,4.53
2022-11-05T11:45:39.431Z,4.20
2022-11-05T11:50:42.562Z,4.90
2022-11-05T12:00:51.825Z,5.25
2022-11-05T12:05:59.092Z,6.45
2022-11-05T12:11:05.050Z,6.18
2022-11-05T12:16:16.018Z,5.82
2022-11-05T12:21:47.676Z,5.75
2022-11-05T12:26:48.686Z,5.55
2022-11-05T12:31:56.917Z,6.07
2022-11-05T12:37:05.396Z,6.45
2022-11-05T12:42:11.022Z,5.65
2022-11-05T12:47:22.388Z,5.15
2022-11-05T12:52:33.717Z,4.57
2022-11-05T12:57:39.920Z,5.50
2022-11-05T13:02:46.645Z,5.88
2022-11-05T13:07:53.493Z,5.78
2022-11-05T13:12:59.396Z,5.75
2022-11-05T13:18:05.672Z,5.57
2022-11-05T13:23:14.625Z,5.82
2022-11-05T13:28:20.108Z,5.38
2022-11-05T13:33:25.990Z,6.65
2022-11-05T13:38:46.262Z,6.60
2022-11-05T13:43:58.501Z,7.13
2022-11-05T13:49:10.839Z,7.32
2022-11-05T13:54:40.401Z,6.40
2022-11-05T13:59:49.794Z,6.90
2022-11-05T14:05:00.574Z,7.05
2022-11-05T14:10:10.236Z,5.93
2022-11-05T14:15:17.852Z,6.45
2022-11-05T14:20:27.373Z,6.57
2022-11-05T14:25:59.957Z,5.93
2022-11-05T14:31:02.758Z,6.43
2022-11-05T14:36:29.410Z,6.05
2022-11-05T14:41:51.944Z,6.45
2022-11-05T14:46:56.011Z,6.40
2022-11-05T14:51:59.437Z,6.95
2022-11-05T15:02:10.297Z,7.40
2022-11-05T15:07:14.754Z,7.40
2022-11-05T15:12:19.403Z,8.63
2022-11-05T15:17:29.634Z,8.52
2022-11-05T15:22:34.066Z,8.43
2022-11-05T15:27:42.925Z,8.45
2022-11-05T15:32:47.000Z,9.23
2022-11-05T15:37:53.580Z,9.75
2022-11-05T15:43:12.305Z,9.65
2022-11-05T15:48:19.123Z,9.85
2022-11-05T15:58:54.885Z,9.50
2022-11-05T16:04:00.002Z,9.93
2022-11-05T16:09:02.786Z,9.93
2022-11-05T16:14:16.114Z,10.23
2022-11-05T16:19:40.166Z,10.33
2022-11-05T16:29:49.709Z,10.55
2022-11-05T16:34:54.581Z,10.70
2022-11-05T16:39:57.146Z,10.05
2022-11-05T16:44:59.839Z,10.33
2022-11-05T16:50:10.528Z,10.10
2022-11-05T16:55:13.018Z,9.30
2022-11-05T17:00:17.152Z,8.48
2022-11-05T17:05:23.129Z,8.70
2022-11-05T17:10:26.381Z,8.80
2022-11-05T17:15:31.062Z,10.60
2022-11-05T17:20:40.688Z,9.52
2022-11-05T17:25:45.274Z,8.73
2022-11-05T17:30:52.632Z,9.13
2022-11-05T17:35:56.924Z,8.68
2022-11-05T17:40:59.375Z,7.90
2022-11-05T17:46:04.671Z,7.55
2022-11-05T17:51:13.323Z,7.93
2022-11-05T17:56:24.608Z,7.97
2022-11-05T18:01:33.069Z,6.88
2022-11-05T18:06:37.359Z,7.65
2022-11-05T18:11:40.071Z,8.13
2022-11-05T18:16:42.586Z,7.67
2022-11-05T18:21:46.485Z,8.23
2022-11-05T18:26:48.951Z,7.50
2022-11-05T18:31:51.520Z,8.10
2022-11-05T18:36:56.673Z,9.20
2022-11-05T18:41:59.309Z,6.85
2022-11-05T18:47:02.471Z,7.43
2022-11-05T18:52:06.333Z,7.65
2022-11-05T18:57:08.761Z,6.85
2022-11-05T19:02:12.076Z,6.55
2022-11-05T19:12:18.712Z,6.50
2022-11-05T19:17:21.418Z,5.97
2022-11-05T19:22:24.552Z,6.87
2022-11-05T19:27:31.031Z,5.85
2022-11-05T19:32:33.730Z,6.25
2022-11-05T19:37:36.231Z,5.93
2022-11-05T19:42:40.107Z,8.45
2022-11-05T19:47:42.637Z,6.10
2022-11-05T19:52:45.752Z,6.13
2022-11-05T19:57:49.683Z,6.10
2022-11-05T20:02:52.519Z,6.40
2022-11-05T20:07:56.034Z,6.40
2022-11-05T20:12:59.906Z,6.95
2022-11-05T20:18:02.385Z,6.80
2022-11-05T20:23:04.858Z,5.95
2022-11-05T20:28:08.850Z,6.03
2022-11-05T20:33:12.051Z,6.95
2022-11-05T20:38:14.935Z,6.50
2022-11-05T20:43:19.071Z,6.25
2022-11-05T20:48:21.772Z,6.45
2022-11-05T20:53:24.212Z,6.17
2022-11-05T20:58:28.147Z,6.50
2022-11-05T21:03:31.014Z,6.95
2022-11-05T21:08:34.149Z,6.65
2022-11-05T21:13:38.054Z,7.00
2022-11-05T21:18:41.205Z,7.13
2022-11-05T21:23:43.640Z,7.63
2022-11-05T21:28:47.554Z,7.20
2022-11-05T21:33:55.010Z,7.18
2022-11-05T21:38:58.174Z,7.35
2022-11-05T21:44:03.922Z,7.57
2022-11-05T21:49:06.585Z,7.85
2022-11-05T21:54:27.279Z,8.00
2022-11-05T21:59:49.254Z,8.23
2022-11-05T22:04:53.396Z,7.38
2022-11-05T22:09:55.899Z,9.25
2022-11-05T22:15:00.045Z,8.73
2022-11-05T22:20:03.270Z,8.57
2022-11-05T22:25:06.119Z,8.93
2022-11-05T22:30:10.773Z,9.13
2022-11-05T22:35:13.312Z,8.75
2022-11-05T22:40:15.758Z,8.97
2022-11-05T22:45:19.787Z,8.30
2022-11-05T22:50:22.324Z,8.60
2022-11-05T22:55:24.800Z,8.13
2022-11-05T23:00:35.002Z,8.77
2022-11-05T23:05:37.752Z,9.02
2022-11-05T23:10:57.803Z,9.53
2022-11-05T23:16:18.999Z,9.90
2022-11-05T23:21:39.232Z,8.50
2022-11-05T23:26:54.072Z,9.35
2022-11-05T23:32:26.787Z,9.18
2022-11-05T23:37:47.317Z,8.43
2022-11-05T23:43:07.521Z,8.98
2022-11-05T23:48:18.118Z,8.95
2022-11-05T23:53:20.961Z,8.90
2022-11-05T23:58:23.591Z,8.50
